VLG905D LEMG-GCXO
Flight info
| Callsign | VLG905D |
|---|---|
| Flight time | N/A |
| Altitude | 37000 |
| Route | PIMOS N869 GALTO UN869 PELAX UB11 MABAP DCT RUSIK |
| Aircraft | A320/M-SDFGHILORVWXY/LB1 |
Departure
| Time | N/A |
|---|---|
| Airport | Málaga-Costa del Sol Airport (LEMG) |
Arrival
| Time | 2026-04-17 18:54 |
|---|---|
| Airport | Tenerife Norte-Ciudad de La Laguna Airport (GCXO) |
| Time | Latitude | Longitude | Altitude | Speed | Heading |
|---|---|---|---|---|---|
| 2026-04-17 17:50 | 30.93467 | -9.96823 | 37058 ft | 427 kts | 234° |
| 2026-04-17 17:50 | 30.91615 | -9.99520 | 37054 ft | 426 kts | 234° |
| 2026-04-17 17:51 | 30.87904 | -10.04904 | 37061 ft | 426 kts | 234° |
| 2026-04-17 17:51 | 30.84199 | -10.10283 | 37053 ft | 426 kts | 234° |
| 2026-04-17 17:52 | 30.80500 | -10.15655 | 37050 ft | 425 kts | 234° |
| 2026-04-17 17:52 | 30.76800 | -10.21018 | 37048 ft | 425 kts | 234° |
| 2026-04-17 17:53 | 30.73102 | -10.26375 | 37041 ft | 425 kts | 234° |
| 2026-04-17 17:53 | 30.69395 | -10.31725 | 37047 ft | 425 kts | 234° |
| 2026-04-17 17:54 | 30.65685 | -10.37059 | 37041 ft | 424 kts | 233° |
| 2026-04-17 17:54 | 30.61980 | -10.42389 | 37045 ft | 424 kts | 234° |
| 2026-04-17 17:55 | 30.58278 | -10.47722 | 37046 ft | 424 kts | 233° |
| 2026-04-17 17:55 | 30.54571 | -10.53038 | 37038 ft | 424 kts | 233° |
| 2026-04-17 17:56 | 30.50865 | -10.58344 | 37038 ft | 423 kts | 233° |
| 2026-04-17 17:56 | 30.47171 | -10.63642 | 37041 ft | 422 kts | 233° |
| 2026-04-17 17:57 | 30.43481 | -10.68933 | 37045 ft | 422 kts | 233° |
| 2026-04-17 17:57 | 30.39780 | -10.74210 | 37049 ft | 422 kts | 233° |
| 2026-04-17 17:58 | 30.36676 | -10.78623 | 37048 ft | 422 kts | 233° |
| 2026-04-17 17:58 | 30.32973 | -10.83885 | 37046 ft | 421 kts | 233° |
| 2026-04-17 17:59 | 30.29280 | -10.89147 | 37046 ft | 421 kts | 233° |
| 2026-04-17 17:59 | 30.25584 | -10.94402 | 37047 ft | 421 kts | 233° |
| 2026-04-17 18:00 | 30.21889 | -10.99650 | 37047 ft | 421 kts | 233° |
| 2026-04-17 18:00 | 30.18193 | -11.04890 | 37047 ft | 420 kts | 233° |
| 2026-04-17 18:01 | 30.14500 | -11.10116 | 37044 ft | 420 kts | 233° |
| 2026-04-17 18:01 | 30.10806 | -11.15338 | 37039 ft | 419 kts | 233° |
| 2026-04-17 18:02 | 30.07113 | -11.20551 | 37042 ft | 419 kts | 233° |
| 2026-04-17 18:02 | 30.03415 | -11.25759 | 37043 ft | 419 kts | 233° |
| 2026-04-17 18:03 | 29.99721 | -11.30956 | 37038 ft | 419 kts | 233° |
| 2026-04-17 18:03 | 29.96032 | -11.36151 | 37042 ft | 418 kts | 232° |
| 2026-04-17 18:04 | 29.92348 | -11.41343 | 37045 ft | 418 kts | 232° |
| 2026-04-17 18:04 | 29.88654 | -11.46517 | 37039 ft | 418 kts | 232° |
| 2026-04-17 18:05 | 29.84958 | -11.51683 | 37039 ft | 418 kts | 232° |
| 2026-04-17 18:05 | 29.81263 | -11.56844 | 37042 ft | 418 kts | 232° |
| 2026-04-17 18:06 | 29.77566 | -11.62009 | 37040 ft | 418 kts | 232° |
| 2026-04-17 18:06 | 29.73872 | -11.67171 | 37037 ft | 418 kts | 232° |
| 2026-04-17 18:07 | 29.70168 | -11.72329 | 37034 ft | 418 kts | 232° |
| 2026-04-17 18:07 | 29.66462 | -11.77484 | 37032 ft | 418 kts | 232° |
| 2026-04-17 18:08 | 29.62751 | -11.82640 | 37032 ft | 419 kts | 232° |
| 2026-04-17 18:08 | 29.59037 | -11.87794 | 37032 ft | 419 kts | 232° |
| 2026-04-17 18:09 | 29.55320 | -11.92952 | 37030 ft | 419 kts | 232° |
| 2026-04-17 18:09 | 29.51595 | -11.98105 | 37034 ft | 419 kts | 232° |
| 2026-04-17 18:10 | 29.47868 | -12.03248 | 37030 ft | 419 kts | 232° |
| 2026-04-17 18:10 | 29.44139 | -12.08392 | 37035 ft | 419 kts | 232° |
| 2026-04-17 18:11 | 29.40416 | -12.13541 | 37038 ft | 419 kts | 232° |
| 2026-04-17 18:11 | 29.36686 | -12.18684 | 37037 ft | 419 kts | 232° |
| 2026-04-17 18:12 | 29.32953 | -12.23820 | 37039 ft | 419 kts | 232° |
| 2026-04-17 18:12 | 29.29218 | -12.28952 | 37037 ft | 419 kts | 231° |
| 2026-04-17 18:13 | 29.25481 | -12.34086 | 37038 ft | 420 kts | 231° |
| 2026-04-17 18:13 | 29.21737 | -12.39216 | 37037 ft | 420 kts | 231° |
| 2026-04-17 18:14 | 29.17991 | -12.44340 | 37029 ft | 420 kts | 231° |
| 2026-04-17 18:14 | 29.14243 | -12.49467 | 37035 ft | 420 kts | 231° |
| 2026-04-17 18:15 | 29.10494 | -12.54589 | 37035 ft | 420 kts | 231° |
| 2026-04-17 18:15 | 29.06740 | -12.59709 | 37034 ft | 420 kts | 231° |
| 2026-04-17 18:16 | 29.02989 | -12.64823 | 37031 ft | 420 kts | 231° |
| 2026-04-17 18:16 | 28.99227 | -12.69941 | 37027 ft | 420 kts | 231° |
| 2026-04-17 18:17 | 28.95460 | -12.75049 | 37032 ft | 421 kts | 231° |
| 2026-04-17 18:17 | 28.92078 | -12.80460 | 37030 ft | 419 kts | 245° |
| 2026-04-17 18:17 | 28.91090 | -12.83583 | 37026 ft | 419 kts | 257° |
| 2026-04-17 18:18 | 28.90343 | -12.90186 | 37021 ft | 420 kts | 262° |
| 2026-04-17 18:18 | 28.89694 | -12.96815 | 37025 ft | 421 kts | 262° |
| 2026-04-17 18:19 | 28.89051 | -13.03454 | 37034 ft | 421 kts | 262° |
| 2026-04-17 18:19 | 28.88409 | -13.10098 | 37035 ft | 421 kts | 262° |
| 2026-04-17 18:20 | 28.87760 | -13.16745 | 37038 ft | 422 kts | 262° |
| 2026-04-17 18:20 | 28.87103 | -13.23439 | 37042 ft | 422 kts | 262° |
| 2026-04-17 18:21 | 28.86444 | -13.30047 | 37030 ft | 422 kts | 262° |
| 2026-04-17 18:21 | 28.85779 | -13.36694 | 37026 ft | 422 kts | 262° |
| 2026-04-17 18:22 | 28.85119 | -13.43348 | 37022 ft | 422 kts | 262° |
| 2026-04-17 18:22 | 28.84454 | -13.49997 | 37017 ft | 422 kts | 262° |
| 2026-04-17 18:23 | 28.83785 | -13.56647 | 37016 ft | 422 kts | 262° |
| 2026-04-17 18:23 | 28.83122 | -13.63295 | 37015 ft | 422 kts | 262° |
| 2026-04-17 18:24 | 28.82446 | -13.69949 | 37022 ft | 422 kts | 262° |
| 2026-04-17 18:24 | 28.81761 | -13.76598 | 37024 ft | 422 kts | 262° |
| 2026-04-17 18:25 | 28.81076 | -13.83247 | 37027 ft | 422 kts | 262° |
| 2026-04-17 18:25 | 28.80383 | -13.89887 | 37033 ft | 422 kts | 262° |
| 2026-04-17 18:26 | 28.79688 | -13.96528 | 37034 ft | 422 kts | 262° |
| 2026-04-17 18:26 | 28.78992 | -14.03168 | 37040 ft | 422 kts | 262° |
| 2026-04-17 18:27 | 28.78295 | -14.09811 | 37029 ft | 422 kts | 262° |
| 2026-04-17 18:27 | 28.77595 | -14.16493 | 37036 ft | 422 kts | 262° |
| 2026-04-17 18:28 | 28.76894 | -14.23130 | 37037 ft | 422 kts | 262° |
| 2026-04-17 18:28 | 28.76203 | -14.29644 | 36713 ft | 411 kts | 262° |
| 2026-04-17 18:29 | 28.75860 | -14.32871 | 36449 ft | 409 kts | 262° |
| 2026-04-17 18:29 | 28.75515 | -14.36088 | 36196 ft | 409 kts | 262° |
| 2026-04-17 18:29 | 28.75168 | -14.39305 | 35939 ft | 409 kts | 262° |
| 2026-04-17 18:29 | 28.74819 | -14.42529 | 35695 ft | 410 kts | 262° |
| 2026-04-17 18:30 | 28.74469 | -14.45752 | 35448 ft | 411 kts | 262° |
| 2026-04-17 18:30 | 28.74120 | -14.48981 | 35203 ft | 410 kts | 262° |
| 2026-04-17 18:30 | 28.73773 | -14.52202 | 34957 ft | 409 kts | 262° |
| 2026-04-17 18:30 | 28.73424 | -14.55413 | 34717 ft | 408 kts | 262° |
| 2026-04-17 18:31 | 28.73075 | -14.58612 | 34485 ft | 406 kts | 261° |
| 2026-04-17 18:31 | 28.72727 | -14.61800 | 34246 ft | 405 kts | 261° |
| 2026-04-17 18:31 | 28.72381 | -14.64974 | 34010 ft | 403 kts | 261° |
| 2026-04-17 18:31 | 28.72037 | -14.68139 | 33745 ft | 402 kts | 262° |
| 2026-04-17 18:32 | 28.71694 | -14.71291 | 33478 ft | 400 kts | 261° |
| 2026-04-17 18:32 | 28.71349 | -14.74430 | 33216 ft | 399 kts | 261° |
| 2026-04-17 18:32 | 28.71005 | -14.77555 | 32952 ft | 397 kts | 261° |
| 2026-04-17 18:32 | 28.70665 | -14.80646 | 32585 ft | 391 kts | 261° |
| 2026-04-17 18:33 | 28.70327 | -14.83709 | 32129 ft | 388 kts | 261° |
| 2026-04-17 18:33 | 28.69991 | -14.86744 | 31681 ft | 385 kts | 262° |
| 2026-04-17 18:33 | 28.69659 | -14.89754 | 31233 ft | 382 kts | 262° |
| 2026-04-17 18:33 | 28.69326 | -14.92744 | 30803 ft | 379 kts | 262° |
| 2026-04-17 18:34 | 28.68993 | -14.95710 | 30370 ft | 377 kts | 262° |
| 2026-04-17 18:34 | 28.68663 | -14.98661 | 29920 ft | 375 kts | 262° |
| 2026-04-17 18:34 | 28.68350 | -15.01621 | 28989 ft | 382 kts | 263° |
| 2026-04-17 18:34 | 28.68065 | -15.04675 | 27904 ft | 394 kts | 263° |
| 2026-04-17 18:35 | 28.67799 | -15.07790 | 27275 ft | 394 kts | 263° |
| 2026-04-17 18:35 | 28.67544 | -15.10868 | 26889 ft | 387 kts | 263° |
| 2026-04-17 18:35 | 28.67293 | -15.13898 | 26485 ft | 382 kts | 263° |
| 2026-04-17 18:35 | 28.67042 | -15.16897 | 26084 ft | 378 kts | 263° |
| 2026-04-17 18:36 | 28.66796 | -15.19865 | 25691 ft | 375 kts | 264° |
| 2026-04-17 18:36 | 28.66546 | -15.22796 | 25405 ft | 369 kts | 265° |
| 2026-04-17 18:36 | 28.66425 | -15.25688 | 25088 ft | 363 kts | 266° |
| 2026-04-17 18:36 | 28.66338 | -15.28550 | 24703 ft | 361 kts | 266° |
| 2026-04-17 18:37 | 28.66256 | -15.31395 | 24287 ft | 359 kts | 266° |
| 2026-04-17 18:37 | 28.66177 | -15.34227 | 23873 ft | 357 kts | 266° |
| 2026-04-17 18:37 | 28.66100 | -15.37046 | 23416 ft | 356 kts | 267° |
| 2026-04-17 18:37 | 28.66027 | -15.39852 | 22927 ft | 354 kts | 266° |
| 2026-04-17 18:38 | 28.65955 | -15.42643 | 22459 ft | 352 kts | 267° |
| 2026-04-17 18:38 | 28.65883 | -15.45419 | 21995 ft | 350 kts | 266° |
| 2026-04-17 18:38 | 28.65814 | -15.48182 | 21420 ft | 351 kts | 266° |
| 2026-04-17 18:38 | 28.65766 | -15.50082 | 20745 ft | 360 kts | 266° |
| 2026-04-17 18:39 | 28.65695 | -15.52986 | 19699 ft | 374 kts | 266° |
| 2026-04-17 18:39 | 28.65623 | -15.56001 | 18751 ft | 386 kts | 266° |
| 2026-04-17 18:39 | 28.65551 | -15.59068 | 17838 ft | 391 kts | 266° |
| 2026-04-17 18:39 | 28.65478 | -15.62214 | 16740 ft | 401 kts | 266° |
| 2026-04-17 18:40 | 28.65400 | -15.65394 | 15955 ft | 402 kts | 266° |
| 2026-04-17 18:40 | 28.65320 | -15.68568 | 15273 ft | 399 kts | 267° |
| 2026-04-17 18:40 | 28.65238 | -15.71710 | 14617 ft | 396 kts | 266° |
| 2026-04-17 18:40 | 28.65158 | -15.74835 | 13966 ft | 393 kts | 266° |
| 2026-04-17 18:41 | 28.65072 | -15.77934 | 13255 ft | 390 kts | 267° |
| 2026-04-17 18:41 | 28.64991 | -15.81007 | 12551 ft | 386 kts | 266° |
| 2026-04-17 18:41 | 28.64916 | -15.84045 | 11876 ft | 382 kts | 266° |
| 2026-04-17 18:41 | 28.64844 | -15.87059 | 11212 ft | 378 kts | 266° |
| 2026-04-17 18:42 | 28.64776 | -15.90037 | 10572 ft | 375 kts | 266° |
| 2026-04-17 18:42 | 28.64714 | -15.92890 | 10305 ft | 361 kts | 266° |
| 2026-04-17 18:42 | 28.64659 | -15.95678 | 10184 ft | 344 kts | 266° |
| 2026-04-17 18:42 | 28.64613 | -15.98340 | 10068 ft | 330 kts | 266° |
| 2026-04-17 18:43 | 28.64571 | -16.00898 | 9953 ft | 317 kts | 266° |
| 2026-04-17 18:43 | 28.64535 | -16.03361 | 9838 ft | 306 kts | 266° |
| 2026-04-17 18:43 | 28.64504 | -16.05740 | 9692 ft | 296 kts | 266° |
| 2026-04-17 18:43 | 28.64479 | -16.08059 | 9422 ft | 291 kts | 266° |
| 2026-04-17 18:44 | 28.64457 | -16.10359 | 9087 ft | 290 kts | 266° |
| 2026-04-17 18:44 | 28.64439 | -16.12650 | 8749 ft | 289 kts | 266° |
| 2026-04-17 18:44 | 28.64425 | -16.14932 | 8418 ft | 288 kts | 266° |
| 2026-04-17 18:44 | 28.64415 | -16.17203 | 8092 ft | 286 kts | 266° |
| 2026-04-17 18:45 | 28.64410 | -16.19460 | 7775 ft | 285 kts | 266° |
| 2026-04-17 18:45 | 28.64409 | -16.21710 | 7443 ft | 284 kts | 266° |
| 2026-04-17 18:45 | 28.64410 | -16.23957 | 7121 ft | 283 kts | 266° |
| 2026-04-17 18:45 | 28.64415 | -16.26194 | 6813 ft | 282 kts | 266° |
| 2026-04-17 18:46 | 28.64421 | -16.28419 | 6572 ft | 278 kts | 266° |
| 2026-04-17 18:46 | 28.64429 | -16.30603 | 6370 ft | 273 kts | 266° |
| 2026-04-17 18:46 | 28.64437 | -16.32730 | 6247 ft | 264 kts | 266° |
| 2026-04-17 18:46 | 28.64444 | -16.34790 | 6121 ft | 256 kts | 266° |
| 2026-04-17 18:47 | 28.64450 | -16.36782 | 5997 ft | 247 kts | 266° |
| 2026-04-17 18:47 | 28.64452 | -16.38706 | 5873 ft | 239 kts | 266° |
| 2026-04-17 18:47 | 28.64459 | -16.40561 | 5750 ft | 230 kts | 265° |
| 2026-04-17 18:47 | 28.64208 | -16.42295 | 5592 ft | 218 kts | 249° |
| 2026-04-17 18:48 | 28.63739 | -16.43920 | 5354 ft | 215 kts | 247° |
| 2026-04-17 18:48 | 28.63244 | -16.45511 | 5151 ft | 209 kts | 246° |
| 2026-04-17 18:48 | 28.62759 | -16.47037 | 5026 ft | 201 kts | 246° |
| 2026-04-17 18:48 | 28.62288 | -16.48520 | 4824 ft | 198 kts | 246° |
| 2026-04-17 18:49 | 28.61695 | -16.49916 | 4581 ft | 194 kts | 224° |
| 2026-04-17 18:49 | 28.60571 | -16.50636 | 4418 ft | 186 kts | 185° |
| 2026-04-17 18:49 | 28.59290 | -16.50573 | 4406 ft | 185 kts | 172° |
| 2026-04-17 18:49 | 28.58016 | -16.50314 | 4344 ft | 186 kts | 164° |
| 2026-04-17 18:50 | 28.56858 | -16.49663 | 4286 ft | 187 kts | 148° |
| 2026-04-17 18:50 | 28.55766 | -16.48846 | 4214 ft | 188 kts | 147° |
| 2026-04-17 18:50 | 28.54706 | -16.48023 | 4132 ft | 178 kts | 146° |
| 2026-04-17 18:50 | 28.53729 | -16.47257 | 4056 ft | 164 kts | 146° |
| 2026-04-17 18:51 | 28.52830 | -16.46544 | 3999 ft | 151 kts | 146° |
| 2026-04-17 18:51 | 28.52107 | -16.45712 | 3876 ft | 149 kts | 118° |
| 2026-04-17 18:51 | 28.51729 | -16.44617 | 3719 ft | 148 kts | 113° |
| 2026-04-17 18:51 | 28.51372 | -16.43538 | 3550 ft | 143 kts | 113° |
| 2026-04-17 18:52 | 28.51025 | -16.42490 | 3360 ft | 141 kts | 112° |
| 2026-04-17 18:52 | 28.50678 | -16.41443 | 3166 ft | 142 kts | 113° |
| 2026-04-17 18:52 | 28.50334 | -16.40401 | 2946 ft | 141 kts | 112° |
| 2026-04-17 18:52 | 28.49988 | -16.39370 | 2779 ft | 139 kts | 112° |
| 2026-04-17 18:53 | 28.49645 | -16.38323 | 2597 ft | 141 kts | 110° |
| 2026-04-17 18:53 | 28.49312 | -16.37274 | 2434 ft | 140 kts | 111° |
| 2026-04-17 18:53 | 28.48970 | -16.36246 | 2208 ft | 138 kts | 110° |
| 2026-04-17 18:53 | 28.48629 | -16.35241 | 2074 ft | 128 kts | 111° |
| 2026-04-17 18:54 | 28.48360 | -16.34432 | 2065 ft | 86 kts | 111° |
| 2026-04-17 18:54 | 28.48203 | -16.33966 | 2052 ft | 46 kts | 111° |
| 2026-04-17 18:54 | 28.48149 | -16.33723 | 2041 ft | 23 kts | 97° |
| 2026-04-17 18:54 | 28.48136 | -16.33579 | 2036 ft | 9 kts | 86° |
| 2026-04-17 18:55 | 28.48188 | -16.33566 | 2038 ft | 8 kts | 313° |
| 2026-04-17 18:55 | 28.48198 | -16.33613 | 2041 ft | 6 kts | 297° |
| 2026-04-17 18:55 | 28.48223 | -16.33674 | 2043 ft | 11 kts | 290° |
| 2026-04-17 18:55 | 28.48256 | -16.33776 | 2045 ft | 16 kts | 289° |
| 2026-04-17 18:56 | 28.48303 | -16.33910 | 2052 ft | 21 kts | 290° |
| 2026-04-17 18:56 | 28.48353 | -16.34067 | 2058 ft | 21 kts | 291° |
| 2026-04-17 18:56 | 28.48403 | -16.34221 | 2062 ft | 21 kts | 290° |
| 2026-04-17 18:56 | 28.48439 | -16.34324 | 2064 ft | 7 kts | 291° |
| 2026-04-17 18:57 | 28.48448 | -16.34351 | 2064 ft | 4 kts | 291° |
| 2026-04-17 18:57 | 28.48459 | -16.34383 | 2065 ft | 6 kts | 291° |
| 2026-04-17 18:57 | 28.48479 | -16.34441 | 2066 ft | 9 kts | 293° |
| 2026-04-17 18:57 | 28.48525 | -16.34486 | 2067 ft | 9 kts | 348° |
| 2026-04-17 18:58 | 28.48586 | -16.34469 | 2067 ft | 9 kts | 24° |
| 2026-04-17 18:58 | 28.48618 | -16.34467 | 2067 ft | 1 kts | 355° |
| 2026-04-17 18:58 | 28.48628 | -16.34469 | 2067 ft | 2 kts | 346° |
| 2026-04-17 18:58 | 28.48632 | -16.34470 | 2067 ft | 0 kts | 346° |